Time;durP1;ratioP1;P1;durP2;ratioP2;P2;SDS_P1;SDS_P2;PMS_P1;PMS_P2;Temp;Humidity;BMP_temperature;BMP_pressure;BME280_temperature;BME280_humidity;BME280_pressure;Samples;Min_cycle;Max_cycle;Signal;HPM_P1;HPM_P2
2023/08/23 00:01:52;;;;;;;7.45;4.88;;;13.90;99.90;;;;;;4946111;28;20105;-75
2023/08/23 00:04:21;;;;;;;6.05;4.47;;;13.90;99.90;;;;;;4944402;28;20046;-75
2023/08/23 00:06:47;;;;;;;9.38;4.80;;;13.80;99.90;;;;;;4940795;28;20051;-75
2023/08/23 00:09:13;;;;;;;7.18;4.70;;;13.80;99.90;;;;;;4929897;28;20062;-75
2023/08/23 00:11:39;;;;;;;8.45;4.97;;;13.70;99.90;;;;;;4943867;28;20052;-75
2023/08/23 00:14:05;;;;;;;4.32;3.05;;;13.70;99.90;;;;;;4944172;28;20050;-75
2023/08/23 00:16:31;;;;;;;6.38;4.18;;;13.70;99.90;;;;;;4940018;28;20145;-75
2023/08/23 00:18:56;;;;;;;5.40;4.13;;;13.70;99.90;;;;;;4941667;28;20047;-75
2023/08/23 00:21:22;;;;;;;4.20;3.47;;;16.50;99.90;;;;;;4922576;28;20050;-77
2023/08/23 00:23:48;;;;;;;7.45;3.72;;;13.60;99.90;;;;;;4936911;28;20050;-76
2023/08/23 00:26:14;;;;;;;5.03;3.97;;;13.60;99.90;;;;;;4922994;28;20047;-77
2023/08/23 00:28:40;;;;;;;5.95;4.55;;;13.60;99.90;;;;;;4939100;28;20050;-76
2023/08/23 00:31:06;;;;;;;7.35;5.00;;;13.60;99.90;;;;;;4924766;28;20104;-77
2023/08/23 00:33:32;;;;;;;7.13;4.88;;;13.60;99.90;;;;;;4942387;28;20078;-76
2023/08/23 00:35:58;;;;;;;5.80;4.72;;;13.60;99.90;;;;;;4945178;28;20160;-77
2023/08/23 00:38:24;;;;;;;6.78;5.10;;;13.60;99.90;;;;;;4927151;28;20047;-78
2023/08/23 00:40:49;;;;;;;6.95;4.80;;;13.60;99.90;;;;;;4940651;28;20094;-77
2023/08/23 00:43:15;;;;;;;5.07;3.67;;;13.60;99.90;;;;;;4930503;28;20138;-77
2023/08/23 00:45:42;;;;;;;7.05;4.68;;;13.50;99.90;;;;;;4924642;28;20141;-77
2023/08/23 00:48:11;;;;;;;5.20;4.68;;;13.50;99.90;;;;;;4923731;28;20141;-77
2023/08/23 00:50:39;;;;;;;5.97;4.25;;;13.50;99.90;;;;;;4956015;28;20109;-77
2023/08/23 00:53:07;;;;;;;7.65;5.10;;;13.50;99.90;;;;;;4933831;28;20051;-78
2023/08/23 00:55:33;;;;;;;5.22;4.15;;;13.40;99.90;;;;;;4920595;28;20043;-78
2023/08/23 00:57:58;;;;;;;6.55;4.20;;;13.40;99.90;;;;;;4956711;28;20069;-77
2023/08/23 01:00:26;;;;;;;6.28;4.00;;;13.40;99.90;;;;;;4959916;28;20061;-78
2023/08/23 01:02:52;;;;;;;4.95;3.70;;;13.40;99.90;;;;;;4942540;28;20784;-77
2023/08/23 01:05:19;;;;;;;4.65;3.80;;;13.30;99.90;;;;;;4946665;28;20042;-77
2023/08/23 01:08:07;;;;;;;8.57;4.70;;;13.30;99.90;;;;;;4945830;28;20459;-78
2023/08/23 01:10:40;;;;;;;6.97;4.38;;;13.20;99.90;;;;;;4946136;28;20058;-77
2023/08/23 01:13:15;;;;;;;4.90;3.65;;;13.20;99.90;;;;;;4961073;28;20937;-77
2023/08/23 01:15:42;;;;;;;3.60;3.03;;;13.10;99.90;;;;;;4959683;28;20543;-78
2023/08/23 01:18:09;;;;;;;3.05;1.58;;;13.10;99.90;;;;;;4955798;28;20050;-77
2023/08/23 01:20:35;;;;;;;2.28;1.60;;;10.40;99.90;;;;;;4940230;28;20081;-78
2023/08/23 01:23:13;;;;;;;1.30;0.82;;;13.10;99.90;;;;;;4938944;28;20045;-78
2023/08/23 01:25:52;;;;;;;5.40;2.65;;;13.10;99.90;;;;;;4946637;28;20846;-79
2023/08/23 01:28:19;;;;;;;2.67;1.92;;;13.10;99.90;;;;;;4961926;28;20058;-78
2023/08/23 01:30:46;;;;;;;3.03;2.63;;;13.10;99.90;;;;;;4978402;28;20488;-79
2023/08/23 01:33:36;;;;;;;5.28;4.03;;;13.10;99.90;;;;;;4950074;28;20157;-80
2023/08/23 01:36:17;;;;;;;4.50;3.65;;;13.10;99.90;;;;;;4978005;28;20058;-78
2023/08/23 01:38:45;;;;;;;4.50;3.97;;;13.00;99.90;;;;;;4965051;28;20499;-78
2023/08/23 01:41:10;;;;;;;12.32;4.15;;;13.00;99.90;;;;;;4947666;28;20080;-78
2023/08/23 01:43:36;;;;;;;4.78;3.60;;;13.00;99.90;;;;;;4962023;28;20578;-78
2023/08/23 01:46:02;;;;;;;7.20;5.35;;;13.00;99.90;;;;;;4946796;28;20121;-79
2023/08/23 01:48:27;;;;;;;8.70;6.53;;;13.00;99.90;;;;;;4963160;28;20813;-78
2023/08/23 01:50:53;;;;;;;7.60;4.82;;;13.00;99.90;;;;;;4964493;28;20141;-78
2023/08/23 01:53:19;;;;;;;10.32;6.53;;;13.00;99.90;;;;;;4940186;28;20070;-77
2023/08/23 01:55:45;;;;;;;5.32;4.47;;;12.90;99.90;;;;;;4944659;28;20050;-78
2023/08/23 01:58:11;;;;;;;6.47;4.72;;;12.90;99.90;;;;;;4952094;28;20055;-81
2023/08/23 02:00:36;;;;;;;5.70;3.60;;;12.90;99.90;;;;;;4940678;28;20055;-81
2023/08/23 02:03:02;;;;;;;3.53;2.75;;;12.90;99.90;;;;;;4951260;28;20064;-78
2023/08/23 02:05:31;;;;;;;4.95;3.58;;;12.80;99.90;;;;;;4925048;28;20508;-79
2023/08/23 02:07:57;;;;;;;6.55;4.00;;;12.80;99.90;;;;;;4957301;28;20055;-78
2023/08/23 02:10:23;;;;;;;8.00;4.43;;;12.80;99.90;;;;;;4926634;28;20783;-79
2023/08/23 02:12:48;;;;;;;5.57;4.10;;;12.80;99.90;;;;;;4943734;28;20046;-77
2023/08/23 02:15:14;;;;;;;6.70;3.83;;;12.80;99.90;;;;;;4927611;28;20169;-78
2023/08/23 02:17:40;;;;;;;5.63;4.65;;;12.80;99.90;;;;;;4943489;28;20059;-78
2023/08/23 02:20:06;;;;;;;6.15;4.97;;;12.80;99.90;;;;;;4926913;28;20050;-78
2023/08/23 02:22:32;;;;;;;16.73;6.43;;;12.80;99.90;;;;;;4938885;28;20105;-79
2023/08/23 02:24:58;;;;;;;184.38;10.18;;;12.80;99.90;;;;;;4939876;28;20054;-78
2023/08/23 02:27:23;;;;;;;207.48;9.95;;;12.80;99.90;;;;;;4943104;28;20042;-78
2023/08/23 02:29:49;;;;;;;25.33;5.40;;;12.80;99.90;;;;;;4927561;28;20130;-79
2023/08/23 02:32:15;;;;;;;5.60;4.85;;;12.80;99.90;;;;;;4942362;28;20050;-78
2023/08/23 02:34:40;;;;;;;11.70;5.20;;;12.80;99.90;;;;;;4945200;28;20133;-78
2023/08/23 02:37:06;;;;;;;10.77;4.90;;;13.20;99.90;;;;;;4927369;28;20053;-79
2023/08/23 02:39:32;;;;;;;17.73;5.32;;;12.80;99.90;;;;;;4941488;28;20113;-79
2023/08/23 02:41:58;;;;;;;17.73;5.22;;;12.80;99.90;;;;;;4941440;28;20090;-78
2023/08/23 02:44:24;;;;;;;15.25;5.43;;;12.80;99.90;;;;;;4944036;28;20050;-79
2023/08/23 02:46:49;;;;;;;11.88;5.82;;;12.80;99.90;;;;;;4941620;28;20053;-78
2023/08/23 02:49:15;;;;;;;14.00;6.00;;;12.90;99.90;;;;;;4956178;28;20641;-79
2023/08/23 02:51:41;;;;;;;17.30;7.00;;;12.90;99.90;;;;;;4941732;28;20125;-78
2023/08/23 02:54:07;;;;;;;13.93;5.70;;;12.90;99.90;;;;;;4958673;28;20733;-78
2023/08/23 02:56:32;;;;;;;25.52;6.45;;;14.60;99.90;;;;;;4926248;28;20074;-78
2023/08/23 02:58:58;;;;;;;28.77;7.57;;;13.00;99.90;;;;;;4924308;28;20051;-79
2023/08/23 03:01:24;;;;;;;10.68;6.80;;;13.10;99.90;;;;;;4945321;28;20464;-79
2023/08/23 03:03:49;;;;;;;24.13;6.55;;;13.10;99.90;;;;;;4941793;28;20464;-79
2023/08/23 03:06:15;;;;;;;20.60;7.28;;;13.20;99.90;;;;;;4945222;28;20047;-78
2023/08/23 03:08:41;;;;;;;16.55;7.63;;;13.30;99.90;;;;;;4947011;28;20047;-80
2023/08/23 03:11:07;;;;;;;20.83;7.40;;;13.30;99.90;;;;;;4940526;28;20112;-78
2023/08/23 03:13:34;;;;;;;17.65;7.75;;;13.40;99.90;;;;;;4957120;28;20129;-77
2023/08/23 03:16:00;;;;;;;23.00;7.75;;;13.40;99.90;;;;;;4941177;28;20058;-79
2023/08/23 03:18:26;;;;;;;32.38;9.50;;;13.50;99.90;;;;;;4940823;28;20153;-78
2023/08/23 03:20:52;;;;;;;29.95;9.90;;;13.50;99.90;;;;;;4934447;28;20049;-78
2023/08/23 03:23:19;;;;;;;48.28;10.80;;;13.50;99.90;;;;;;4934029;28;20051;-79
2023/08/23 03:25:46;;;;;;;21.35;8.98;;;13.60;99.90;;;;;;4924984;28;20827;-77
2023/08/23 03:28:15;;;;;;;31.10;8.38;;;13.60;99.90;;;;;;4924235;28;20058;-78
2023/08/23 03:30:41;;;;;;;22.17;8.65;;;13.70;99.90;;;;;;4961146;28;20148;-78
2023/08/23 03:33:07;;;;;;;11.35;8.63;;;13.70;99.90;;;;;;4942014;28;20404;-80
2023/08/23 03:35:33;;;;;;;10.45;7.53;;;13.80;99.90;;;;;;4940714;28;20054;-78
2023/08/23 03:37:59;;;;;;;8.85;7.88;;;13.80;99.90;;;;;;4940399;28;20420;-77
2023/08/23 03:40:25;;;;;;;8.65;7.32;;;13.80;99.90;;;;;;4941420;28;20062;-78
2023/08/23 03:42:51;;;;;;;10.07;7.95;;;13.80;99.90;;;;;;4941514;28;20740;-78
2023/08/23 03:45:18;;;;;;;8.55;7.65;;;13.80;99.90;;;;;;4924922;28;20488;-78
2023/08/23 03:47:44;;;;;;;9.38;8.40;;;13.90;99.90;;;;;;4923700;28;20061;-78
2023/08/23 03:50:11;;;;;;;9.77;8.57;;;11.20;99.90;;;;;;4939688;28;20058;-72
2023/08/23 03:52:37;;;;;;;9.93;8.63;;;13.90;99.90;;;;;;4937071;28;20670;-76
2023/08/23 03:55:03;;;;;;;10.90;9.60;;;13.90;99.90;;;;;;4936811;28;20053;-78
2023/08/23 03:57:29;;;;;;;11.77;9.73;;;14.00;99.90;;;;;;4953491;28;20581;-79
2023/08/23 03:59:55;;;;;;;12.25;9.95;;;14.00;99.90;;;;;;4970562;28;20053;-79
2023/08/23 04:02:21;;;;;;;10.75;9.65;;;14.10;99.90;;;;;;4974178;28;20624;-78
2023/08/23 04:04:47;;;;;;;14.93;11.50;;;14.10;99.90;;;;;;4974337;28;20101;-79
2023/08/23 04:07:15;;;;;;;12.90;10.85;;;14.10;99.90;;;;;;4974762;28;20050;-78
2023/08/23 04:09:41;;;;;;;13.93;11.75;;;14.20;99.90;;;;;;4973870;28;20066;-78
2023/08/23 04:12:08;;;;;;;14.50;11.20;;;14.20;99.90;;;;;;4974456;28;20551;-78
2023/08/23 04:14:33;;;;;;;15.15;11.65;;;14.20;99.90;;;;;;4958860;28;20062;-78
2023/08/23 04:16:59;;;;;;;14.35;11.70;;;14.30;99.90;;;;;;4977135;28;20537;-79
2023/08/23 04:19:26;;;;;;;14.10;11.45;;;14.30;99.90;;;;;;4961413;28;20054;-78
2023/08/23 04:21:51;;;;;;;14.98;12.57;;;14.30;99.90;;;;;;4974807;28;20045;-77
2023/08/23 04:24:17;;;;;;;16.15;12.25;;;14.30;99.90;;;;;;4955984;28;20046;-78
2023/08/23 04:26:43;;;;;;;15.77;11.82;;;14.30;99.90;;;;;;4977261;28;20057;-77
2023/08/23 04:29:09;;;;;;;15.02;12.10;;;14.30;99.90;;;;;;4974203;28;20042;-78
2023/08/23 04:31:35;;;;;;;15.63;12.80;;;14.40;99.90;;;;;;4979687;28;20058;-78
2023/08/23 04:34:04;;;;;;;14.50;11.73;;;14.40;99.90;;;;;;4977044;28;20054;-77
2023/08/23 04:36:31;;;;;;;15.82;13.48;;;14.40;99.90;;;;;;4957462;28;20581;-76
2023/08/23 04:38:57;;;;;;;17.15;13.02;;;14.40;99.90;;;;;;4972226;28;20522;-77
2023/08/23 04:41:23;;;;;;;15.85;12.85;;;14.40;99.90;;;;;;4978138;28;20046;-76
2023/08/23 04:43:49;;;;;;;16.38;13.13;;;14.50;99.90;;;;;;4959805;28;20573;-77
2023/08/23 04:46:14;;;;;;;17.65;13.25;;;14.50;99.90;;;;;;4974113;28;20049;-78
2023/08/23 04:48:40;;;;;;;17.45;12.52;;;14.60;99.90;;;;;;4957220;28;20064;-78
2023/08/23 04:51:09;;;;;;;17.83;12.50;;;14.60;99.90;;;;;;4973958;28;20060;-76
2023/08/23 04:53:36;;;;;;;16.63;13.13;;;14.70;99.90;;;;;;4973388;28;20054;-77
2023/08/23 04:56:02;;;;;;;15.88;13.00;;;14.70;99.90;;;;;;4979178;28;20050;-77
2023/08/23 04:58:31;;;;;;;19.55;13.80;;;14.70;99.90;;;;;;4961775;28;20080;-76
2023/08/23 05:01:04;;;;;;;14.32;12.10;;;14.70;99.90;;;;;;4967194;28;20077;-80
2023/08/23 05:03:30;;;;;;;18.00;12.38;;;14.80;99.90;;;;;;4961535;28;20137;-77
2023/08/23 05:05:58;;;;;;;15.88;11.80;;;14.80;99.90;;;;;;4964745;28;20050;-77
2023/08/23 05:08:23;;;;;;;14.88;12.75;;;14.90;99.90;;;;;;4960994;28;20062;-77
2023/08/23 05:10:52;;;;;;;13.82;11.90;;;15.00;99.90;;;;;;4957749;28;20054;-76
2023/08/23 05:13:19;;;;;;;13.93;12.40;;;15.00;99.90;;;;;;4975150;28;20108;-75
2023/08/23 05:15:53;;;;;;;15.10;11.00;;;15.10;99.90;;;;;;4943652;28;20578;-77
2023/08/23 05:18:20;;;;;;;14.05;12.05;;;15.10;99.90;;;;;;4976442;28;20128;-74
2023/08/23 05:20:46;;;;;;;15.88;11.32;;;15.10;99.90;;;;;;4953487;28;20046;-77
2023/08/23 05:23:12;;;;;;;18.58;12.23;;;15.10;99.90;;;;;;4972434;28;20639;-76
2023/08/23 05:25:37;;;;;;;15.43;12.55;;;15.10;99.90;;;;;;4961651;28;20050;-78
2023/08/23 05:28:03;;;;;;;24.52;13.60;;;15.20;99.90;;;;;;4978574;28;20046;-76
2023/08/23 05:30:31;;;;;;;18.70;14.18;;;15.20;99.90;;;;;;4958277;28;20058;-75
2023/08/23 05:32:57;;;;;;;19.50;13.27;;;15.30;99.90;;;;;;4959840;28;20092;-75
2023/08/23 05:35:22;;;;;;;23.23;14.32;;;15.40;99.90;;;;;;4973197;28;20129;-76
2023/08/23 05:37:48;;;;;;;18.83;14.02;;;15.60;99.90;;;;;;4957574;28;20586;-75
2023/08/23 05:40:14;;;;;;;15.18;13.25;;;15.80;99.90;;;;;;4974420;28;20407;-76
2023/08/23 05:42:40;;;;;;;23.83;16.15;;;16.10;99.90;;;;;;4956789;28;20065;-77
2023/08/23 05:45:06;;;;;;;18.20;14.32;;;16.30;99.90;;;;;;4956029;28;20538;-76
2023/08/23 05:47:33;;;;;;;16.80;14.48;;;16.40;99.90;;;;;;4976358;28;20124;-76
2023/08/23 05:49:58;;;;;;;17.02;14.57;;;16.40;99.90;;;;;;4973155;28;20487;-76
2023/08/23 05:52:24;;;;;;;21.85;13.80;;;16.50;99.90;;;;;;4973092;28;20085;-79
2023/08/23 05:54:50;;;;;;;18.42;14.95;;;16.50;99.90;;;;;;4975863;28;20057;-77
2023/08/23 05:57:16;;;;;;;17.17;14.77;;;16.50;99.90;;;;;;4971408;28;20189;-77
2023/08/23 05:59:42;;;;;;;23.10;16.73;;;16.50;99.90;;;;;;4979369;28;20050;-77
2023/08/23 06:02:07;;;;;;;17.20;15.10;;;16.50;99.90;;;;;;4961261;28;20707;-76
2023/08/23 06:04:33;;;;;;;20.33;16.85;;;16.70;99.90;;;;;;4977570;28;20566;-75
2023/08/23 06:06:59;;;;;;;16.65;14.73;;;17.10;99.90;;;;;;4981607;28;20046;-76
2023/08/23 06:09:25;;;;;;;19.67;15.73;;;17.10;99.90;;;;;;4943646;28;20132;-76
2023/08/23 06:11:51;;;;;;;19.88;16.38;;;17.00;99.90;;;;;;4979734;28;20141;-76
2023/08/23 06:14:24;;;;;;;17.98;15.90;;;17.30;99.90;;;;;;4978063;28;20910;-78
2023/08/23 06:16:50;;;;;;;15.65;13.95;;;17.90;99.90;;;;;;4976144;28;20126;-78
2023/08/23 06:19:16;;;;;;;13.50;12.18;;;19.20;99.90;;;;;;4960778;28;20045;-76
2023/08/23 06:21:42;;;;;;;12.85;11.50;;;20.10;99.90;;;;;;4976420;28;20105;-77
2023/08/23 06:24:09;;;;;;;13.10;11.73;;;21.00;99.90;;;;;;4958361;28;20046;-77
2023/08/23 06:26:35;;;;;;;11.68;10.23;;;21.80;99.90;;;;;;4962382;28;20180;-78
2023/08/23 06:29:01;;;;;;;12.52;10.95;;;22.20;99.90;;;;;;4981234;28;20839;-80
2023/08/23 06:31:27;;;;;;;14.85;10.25;;;22.50;99.90;;;;;;4960769;28;20046;-77
2023/08/23 06:33:53;;;;;;;10.95;9.85;;;21.90;99.90;;;;;;4975788;28;20057;-77
2023/08/23 06:36:18;;;;;;;13.13;11.65;;;22.00;99.90;;;;;;4975813;28;20062;-77
2023/08/23 06:38:44;;;;;;;13.50;10.77;;;22.30;99.90;;;;;;4962380;28;20156;-78
2023/08/23 06:41:10;;;;;;;11.35;9.43;;;22.60;99.90;;;;;;4963914;28;20103;-75
2023/08/23 06:43:36;;;;;;;13.00;10.73;;;23.00;99.90;;;;;;4966225;28;20054;-77
2023/08/23 06:46:01;;;;;;;10.73;9.63;;;23.50;99.90;;;;;;4976688;28;20097;-78
2023/08/23 06:48:28;;;;;;;12.20;9.88;;;23.80;99.90;;;;;;4977366;28;20054;-79
2023/08/23 06:50:58;;;;;;;10.10;8.57;;;24.30;99.90;;;;;;4977275;28;20038;-78
2023/08/23 06:53:24;;;;;;;10.18;9.10;;;24.80;99.90;;;;;;4980148;28;20054;-77
2023/08/23 06:55:50;;;;;;;11.25;9.77;;;25.30;99.90;;;;;;4977101;28;20046;-77
2023/08/23 06:58:15;;;;;;;11.85;9.38;;;25.90;99.90;;;;;;4977398;28;20075;-81
2023/08/23 07:00:42;;;;;;;12.15;9.43;;;26.30;99.90;;;;;;4979462;28;20062;-79
2023/08/23 07:03:09;;;;;;;10.02;7.85;;;26.40;99.10;;;;;;4980039;28;20046;-79
2023/08/23 07:05:34;;;;;;;10.57;8.32;;;26.80;98.10;;;;;;4973407;28;20055;-78
2023/08/23 07:08:01;;;;;;;9.90;8.93;;;27.70;97.00;;;;;;4994399;28;20046;-79
2023/08/23 07:10:26;;;;;;;10.30;8.60;;;28.40;95.50;;;;;;4974383;28;20054;-75
2023/08/23 07:12:52;;;;;;;9.70;8.70;;;28.20;94.60;;;;;;4982305;28;20108;-79
2023/08/23 07:15:19;;;;;;;9.82;7.82;;;27.90;94.10;;;;;;4958627;28;20058;-79
2023/08/23 07:17:45;;;;;;;10.35;8.43;;;27.40;94.10;;;;;;4977834;28;20494;-78
2023/08/23 07:20:15;;;;;;;10.82;8.85;;;28.50;94.60;;;;;;4973961;28;20066;-76
2023/08/23 07:22:41;;;;;;;12.10;9.07;;;26.30;94.20;;;;;;4974267;28;20582;-77
2023/08/23 07:25:08;;;;;;;7.72;6.28;;;25.80;94.60;;;;;;4943403;28;20047;-77
2023/08/23 07:27:36;;;;;;;10.48;8.95;;;25.40;95.10;;;;;;4950462;28;20046;-77
2023/08/23 07:30:03;;;;;;;12.77;8.40;;;25.00;95.50;;;;;;4975408;28;20059;-77
2023/08/23 07:32:31;;;;;;;8.48;7.15;;;25.00;96.30;;;;;;5003058;28;20046;-78
2023/08/23 07:35:00;;;;;;;9.43;8.20;;;24.90;96.50;;;;;;4975373;28;20069;-78
2023/08/23 07:37:26;;;;;;;9.98;7.60;;;24.80;97.00;;;;;;4975727;28;20132;-77
2023/08/23 07:39:52;;;;;;;11.18;8.60;;;24.60;97.30;;;;;;4993912;28;20061;-78
2023/08/23 07:42:18;;;;;;;10.10;7.85;;;24.50;97.50;;;;;;4966877;28;20112;-78
2023/08/23 07:44:43;;;;;;;10.38;8.32;;;24.30;97.70;;;;;;4973787;28;20054;-76
2023/08/23 07:47:09;;;;;;;10.73;8.75;;;24.10;97.80;;;;;;4979080;28;20066;-75
2023/08/23 07:49:35;;;;;;;11.32;7.20;;;24.00;98.10;;;;;;4974041;28;20166;-75
2023/08/23 07:52:00;;;;;;;8.25;7.45;;;23.90;98.50;;;;;;4966144;28;20150;-74
2023/08/23 07:54:26;;;;;;;7.40;6.40;;;24.30;98.80;;;;;;4990253;28;20149;-74
2023/08/23 07:56:52;;;;;;;7.18;6.28;;;24.80;98.60;;;;;;4976041;28;20070;-74
2023/08/23 07:59:18;;;;;;;8.25;5.80;;;25.30;98.20;;;;;;4938907;28;20567;-74
2023/08/23 08:01:43;;;;;;;8.55;5.90;;;26.00;97.60;;;;;;4939467;28;20105;-73
2023/08/23 08:04:09;;;;;;;7.75;4.75;;;27.10;96.80;;;;;;4940899;28;20197;-73
2023/08/23 08:06:35;;;;;;;6.20;4.78;;;28.20;95.60;;;;;;4922072;28;20446;-84
2023/08/23 08:09:01;;;;;;;7.75;4.78;;;29.30;94.00;;;;;;4939106;28;20086;-75
2023/08/23 08:11:26;;;;;;;4.60;3.53;;;30.20;92.30;;;;;;4938340;28;20065;-75
2023/08/23 08:13:52;;;;;;;7.35;4.65;;;32.90;91.50;;;;;;4941835;28;20051;-73
2023/08/23 08:16:18;;;;;;;6.38;3.42;;;31.60;88.20;;;;;;4938949;28;20054;-74
2023/08/23 08:18:44;;;;;;;5.30;3.00;;;31.80;85.50;;;;;;4933121;28;20113;-73
2023/08/23 08:21:10;;;;;;;4.97;3.35;;;31.80;82.40;;;;;;4934335;28;20975;-75
2023/08/23 08:23:36;;;;;;;4.85;2.50;;;31.40;80.80;;;;;;4943274;28;20136;-74
2023/08/23 08:26:02;;;;;;;4.20;3.00;;;30.90;80.80;;;;;;4924766;28;20088;-78
2023/08/23 08:28:28;;;;;;;4.43;2.30;;;30.60;80.20;;;;;;4938576;28;20062;-75
2023/08/23 08:30:54;;;;;;;5.90;2.22;;;31.00;80.60;;;;;;4938764;28;20050;-75
2023/08/23 08:33:20;;;;;;;4.60;2.28;;;31.50;80.30;;;;;;4939002;28;20231;-75
2023/08/23 08:35:45;;;;;;;3.05;1.88;;;32.10;79.10;;;;;;4942884;28;20073;-75
2023/08/23 08:38:11;;;;;;;4.22;2.60;;;32.60;77.80;;;;;;4939508;28;20082;-77
2023/08/23 08:40:37;;;;;;;6.20;2.03;;;32.90;75.90;;;;;;4939448;28;20165;-74
2023/08/23 08:43:04;;;;;;;3.42;1.85;;;33.20;74.70;;;;;;4929636;28;20042;-75
2023/08/23 08:45:30;;;;;;;4.35;1.70;;;33.30;72.90;;;;;;4940188;28;20077;-75
2023/08/23 08:47:55;;;;;;;2.83;1.52;;;32.10;70.90;;;;;;4944069;28;20050;-77
2023/08/23 08:50:22;;;;;;;2.83;1.48;;;33.70;71.80;;;;;;4937946;28;20050;-74
2023/08/23 08:52:53;;;;;;;3.58;1.75;;;34.10;70.70;;;;;;4933712;28;20046;-76
2023/08/23 08:55:21;;;;;;;2.38;1.00;;;34.50;69.80;;;;;;4938012;28;20043;-75
2023/08/23 08:57:49;;;;;;;6.35;1.25;;;35.10;68.60;;;;;;4960149;28;20173;-74
2023/08/23 09:00:15;;;;;;;2.88;1.30;;;35.30;67.20;;;;;;4975138;28;20885;-74
2023/08/23 09:02:44;;;;;;;2.75;1.23;;;35.20;66.70;;;;;;4973471;28;20094;-75
2023/08/23 09:05:10;;;;;;;3.28;1.60;;;35.30;65.40;;;;;;4989379;28;20451;-73
2023/08/23 09:07:38;;;;;;;2.70;1.10;;;35.50;64.50;;;;;;4938763;28;20070;-76
2023/08/23 09:10:08;;;;;;;2.22;1.10;;;35.70;64.20;;;;;;4936835;28;20062;-77
2023/08/23 09:12:39;;;;;;;3.65;0.70;;;35.80;63.30;;;;;;4947097;28;20511;-78
2023/08/23 09:15:09;;;;;;;;;;;35.80;62.00;;;;;;4956897;28;21754;-78
2023/08/23 09:17:40;;;;;;;3.28;1.10;;;35.20;64.10;;;;;;4947566;28;19946;-74
2023/08/23 09:20:29;;;;;;;2.95;0.70;;;34.80;63.40;;;;;;4949985;28;20248;-76
2023/08/23 09:22:56;;;;;;;2.45;1.10;;;34.80;63.60;;;;;;4952356;28;20372;-74
2023/08/23 09:25:24;;;;;;;2.25;0.60;;;35.00;62.90;;;;;;4960437;28;20093;-76
2023/08/23 09:27:59;;;;;;;3.00;0.40;;;35.20;63.30;;;;;;4941788;28;20145;-77
2023/08/23 09:30:28;;;;;;;4.50;0.40;;;35.20;62.90;;;;;;4950977;28;20058;-78
2023/08/23 09:33:03;;;;;;;2.50;0.40;;;35.00;62.50;;;;;;4960152;28;20101;-78
2023/08/23 09:35:33;;;;;;;4.63;0.43;;;34.90;62.40;;;;;;4935020;28;20093;-78
2023/08/23 09:38:00;;;;;;;3.47;0.32;;;33.40;61.20;;;;;;4955233;28;20058;-80
2023/08/23 09:40:30;;;;;;;3.95;0.30;;;34.90;62.90;;;;;;4956154;28;20101;-80
2023/08/23 09:42:56;;;;;;;2.42;0.47;;;34.80;62.90;;;;;;4941199;28;20058;-79
2023/08/23 09:45:24;;;;;;;3.20;0.40;;;34.60;62.10;;;;;;4937905;28;20798;-79
2023/08/23 09:48:05;;;;;;;1.58;0.40;;;34.60;61.00;;;;;;4937129;28;20055;-79
2023/08/23 09:50:37;;;;;;;2.85;0.47;;;34.80;61.60;;;;;;4967514;28;20054;-79
2023/08/23 09:53:05;;;;;;;3.17;0.40;;;34.30;62.00;;;;;;4934134;28;20062;-75
2023/08/23 09:55:36;;;;;;;5.28;0.50;;;33.90;62.50;;;;;;4950203;28;20411;-75
2023/08/23 09:58:03;;;;;;;1.70;0.30;;;34.00;63.00;;;;;;4955347;28;20083;-75
2023/08/23 10:00:31;;;;;;;2.25;0.30;;;34.10;62.70;;;;;;4948912;28;20117;-77
2023/08/23 10:02:59;;;;;;;1.80;0.32;;;34.30;62.80;;;;;;4962129;28;20062;-79
2023/08/23 10:05:26;;;;;;;2.45;0.52;;;34.40;62.30;;;;;;4958513;28;20769;-74
2023/08/23 10:07:54;;;;;;;3.53;0.40;;;34.60;62.40;;;;;;4929810;28;20065;-78
2023/08/23 10:10:25;;;;;;;1.75;0.30;;;34.40;61.90;;;;;;4956268;28;20144;-75
2023/08/23 10:12:59;;;;;;;2.83;0.68;;;34.60;61.70;;;;;;4957497;28;20046;-78
2023/08/23 10:15:35;;;;;;;2.28;0.30;;;34.30;60.30;;;;;;4944157;28;20062;-75
2023/08/23 10:18:06;;;;;;;1.80;0.30;;;34.10;61.60;;;;;;4932626;28;20609;-76
2023/08/23 10:20:37;;;;;;;1.70;0.40;;;34.00;62.10;;;;;;4953954;28;20054;-78
2023/08/23 10:23:13;;;;;;;1.95;0.60;;;33.50;62.50;;;;;;4948095;28;20055;-81
2023/08/23 10:25:46;;;;;;;1.77;0.40;;;33.00;61.90;;;;;;4966333;28;20061;-84
2023/08/23 10:28:18;;;;;;;3.45;0.50;;;32.60;62.10;;;;;;4962235;28;20787;-78
2023/08/23 10:30:54;;;;;;;2.88;0.43;;;32.40;63.00;;;;;;4940114;28;20152;-76
2023/08/23 10:33:22;;;;;;;1.42;0.25;;;32.30;63.90;;;;;;4944830;28;20634;-76
2023/08/23 10:35:49;;;;;;;3.20;0.60;;;31.90;64.70;;;;;;4966049;28;20054;-81
2023/08/23 10:38:16;;;;;;;1.20;0.38;;;31.40;63.10;;;;;;4943563;28;20057;-80
2023/08/23 10:40:47;;;;;;;2.28;0.50;;;31.30;64.40;;;;;;4948579;28;20138;-75
2023/08/23 10:43:21;;;;;;;1.33;0.22;;;31.10;65.50;;;;;;4944091;28;20125;-75
2023/08/23 10:45:57;;;;;;;2.08;0.30;;;28.70;66.00;;;;;;4957198;28;20058;-76
2023/08/23 10:48:25;;;;;;;2.15;0.50;;;30.40;68.20;;;;;;4968071;28;21212;-77
2023/08/23 10:50:57;;;;;;;2.58;0.63;;;30.20;68.20;;;;;;4964655;28;20091;-72
2023/08/23 10:53:48;;;;;;;4.05;0.60;;;30.40;68.60;;;;;;4954213;28;20080;-78
2023/08/23 10:56:18;;;;;;;2.42;0.55;;;29.80;67.90;;;;;;4972629;28;20050;-72
2023/08/23 10:58:50;;;;;;;2.72;0.50;;;29.70;69.20;;;;;;4940289;28;20063;-72
2023/08/23 11:01:33;;;;;;;3.65;0.38;;;29.60;68.80;;;;;;4920343;28;20979;-73
2023/08/23 11:04:12;;;;;;;5.43;0.73;;;29.50;68.80;;;;;;4903988;28;20070;-75
2023/08/23 11:06:42;;;;;;;5.03;1.00;;;29.00;69.40;;;;;;4902042;28;20069;-74
2023/08/23 11:09:15;;;;;;;4.15;1.20;;;28.30;70.80;;;;;;4905223;28;20047;-79
2023/08/23 11:11:41;;;;;;;5.05;1.23;;;27.60;72.00;;;;;;4900732;28;20054;-76
2023/08/23 11:14:08;;;;;;;5.18;1.88;;;27.00;73.40;;;;;;4921620;28;20058;-81
2023/08/23 11:16:35;;;;;;;4.88;1.23;;;26.60;75.00;;;;;;4896153;28;20086;-77
2023/08/23 11:19:05;;;;;;;3.30;1.10;;;26.30;75.70;;;;;;4900789;28;20051;-75
2023/08/23 11:21:32;;;;;;;6.03;1.27;;;26.00;76.90;;;;;;4918340;28;20062;-73
2023/08/23 11:24:03;;;;;;;7.30;1.35;;;25.70;77.70;;;;;;4905058;28;20058;-80
2023/08/23 11:26:43;;;;;;;7.03;1.40;;;25.50;78.30;;;;;;4916717;28;20713;-75
2023/08/23 11:29:10;;;;;;;4.95;1.42;;;25.40;79.40;;;;;;4924355;28;20050;-76
2023/08/23 11:31:53;;;;;;;4.95;1.42;;;25.40;80.60;;;;;;4925685;28;20066;-77
2023/08/23 11:34:20;;;;;;;3.70;1.15;;;25.40;81.80;;;;;;4925116;28;20713;-76
2023/08/23 11:36:46;;;;;;;9.02;1.27;;;25.40;81.70;;;;;;4957426;28;20134;-74
2023/08/23 11:39:13;;;;;;;9.48;1.60;;;25.50;82.10;;;;;;4943510;28;20255;-78
2023/08/23 11:41:40;;;;;;;5.45;1.50;;;25.50;82.70;;;;;;4942078;28;20050;-77
2023/08/23 11:44:09;;;;;;;3.97;1.33;;;25.50;82.10;;;;;;4946223;28;20138;-83
2023/08/23 11:46:38;;;;;;;3.92;1.55;;;25.50;81.60;;;;;;4941474;28;20377;-76
2023/08/23 11:49:08;;;;;;;3.80;1.05;;;25.50;82.40;;;;;;4940248;28;20061;-73
2023/08/23 11:51:51;;;;;;;4.28;0.90;;;25.50;83.80;;;;;;4943361;28;20050;-77
2023/08/23 11:54:18;;;;;;;7.07;1.30;;;25.50;82.50;;;;;;4945965;28;20054;-73
2023/08/23 11:56:46;;;;;;;3.45;1.00;;;25.60;81.90;;;;;;4941929;28;20807;-77
2023/08/23 11:59:12;;;;;;;4.28;1.20;;;25.60;81.10;;;;;;4934347;28;20082;-74
2023/08/23 12:01:38;;;;;;;4.18;1.13;;;25.60;81.30;;;;;;4945236;28;20058;-75
2023/08/23 12:04:08;;;;;;;6.90;1.30;;;25.70;81.20;;;;;;4928425;28;20069;-77
2023/08/23 12:06:34;;;;;;;7.78;1.23;;;25.70;81.50;;;;;;4957625;28;20043;-77
2023/08/23 12:09:00;;;;;;;5.30;1.10;;;25.60;83.00;;;;;;4942016;28;20050;-75
2023/08/23 12:11:26;;;;;;;12.80;1.50;;;25.60;82.90;;;;;;4923109;28;20890;-74
2023/08/23 12:13:52;;;;;;;3.25;0.50;;;25.30;81.50;;;;;;4939289;28;20496;-79
2023/08/23 12:16:18;;;;;;;4.90;0.90;;;25.50;81.40;;;;;;4939713;28;20043;-76
2023/08/23 12:18:46;;;;;;;3.88;0.63;;;25.80;83.00;;;;;;4936265;28;20043;-77
2023/08/23 12:21:12;;;;;;;3.75;0.70;;;25.70;83.30;;;;;;4941205;28;20078;-77
2023/08/23 12:23:38;;;;;;;5.03;0.70;;;25.90;83.70;;;;;;4941942;28;20057;-76
2023/08/23 12:26:03;;;;;;;7.28;1.05;;;26.10;84.10;;;;;;4942595;28;20050;-81
2023/08/23 12:28:31;;;;;;;6.47;0.90;;;26.20;83.50;;;;;;4936160;28;20065;-78
2023/08/23 12:30:59;;;;;;;8.35;1.33;;;26.40;83.30;;;;;;4940236;28;20073;-78
2023/08/23 12:33:25;;;;;;;13.02;1.33;;;26.30;82.10;;;;;;4936714;28;20062;-75
2023/08/23 12:35:51;;;;;;;5.28;1.30;;;26.10;81.50;;;;;;4939211;28;20051;-78
2023/08/23 12:38:18;;;;;;;7.13;1.98;;;25.80;81.80;;;;;;4943876;28;20232;-74
2023/08/23 12:40:44;;;;;;;6.13;1.38;;;25.70;82.80;;;;;;4925401;28;20049;-73
2023/08/23 12:43:11;;;;;;;5.13;1.73;;;27.80;85.10;;;;;;4955027;28;20054;-77